Time;durP1;ratioP1;P1;durP2;ratioP2;P2;SDS_P1;SDS_P2;PMS_P1;PMS_P2;Temp;Humidity;BMP_temperature;BMP_pressure;BME280_temperature;BME280_humidity;BME280_pressure;Samples;Min_cycle;Max_cycle;Signal;HPM_P1;HPM_P2
2023/03/18 00:01:03;;;;;;;23.98;9.82;;;11.70;99.90;;;;;;5031486;28;20281;-45
2023/03/18 00:03:33;;;;;;;8.10;2.58;;;11.70;99.90;;;;;;5031646;28;20175;-45
2023/03/18 00:06:18;;;;;;;7.20;2.90;;;11.70;99.90;;;;;;5031345;28;20167;-44
2023/03/18 00:08:46;;;;;;;4.15;2.60;;;11.70;99.90;;;;;;5030846;28;20215;-47
2023/03/18 00:11:13;;;;;;;8.23;2.50;;;11.60;99.90;;;;;;5030850;28;20167;-45
2023/03/18 00:13:40;;;;;;;3.92;2.33;;;11.70;99.90;;;;;;5030936;28;20163;-44
2023/03/18 00:16:07;;;;;;;5.78;2.40;;;11.70;99.90;;;;;;5030917;28;20179;-47
2023/03/18 00:18:33;;;;;;;4.05;2.35;;;11.70;99.90;;;;;;5011365;28;20182;-45
2023/03/18 00:21:00;;;;;;;8.40;2.70;;;11.60;99.90;;;;;;5012695;28;20204;-45
2023/03/18 00:23:26;;;;;;;4.28;2.30;;;12.20;99.90;;;;;;5031224;28;20233;-45
2023/03/18 00:25:55;;;;;;;4.50;2.35;;;11.60;99.90;;;;;;5030821;28;20175;-44
2023/03/18 00:28:22;;;;;;;5.47;2.85;;;11.60;99.90;;;;;;5030804;28;20321;-45
2023/03/18 00:30:48;;;;;;;7.78;3.00;;;11.60;99.90;;;;;;5030273;28;20175;-44
2023/03/18 00:33:15;;;;;;;8.05;2.60;;;11.60;99.90;;;;;;5030603;28;20171;-44
2023/03/18 00:35:41;;;;;;;8.68;3.22;;;11.50;99.90;;;;;;5030424;28;20276;-44
2023/03/18 00:38:08;;;;;;;5.28;2.88;;;11.50;99.90;;;;;;5031045;28;20180;-44
2023/03/18 00:40:52;;;;;;;6.05;2.95;;;11.50;99.90;;;;;;5030652;28;20195;-46
2023/03/18 00:43:21;;;;;;;8.00;2.83;;;11.50;99.90;;;;;;5031012;28;20172;-43
2023/03/18 00:45:48;;;;;;;6.13;2.65;;;11.50;99.90;;;;;;5031895;28;20176;-43
2023/03/18 00:48:13;;;;;;;10.02;2.80;;;11.50;99.90;;;;;;5034631;28;20255;-46
2023/03/18 00:50:40;;;;;;;5.28;2.50;;;11.50;99.90;;;;;;5034689;28;20191;-44
2023/03/18 00:53:06;;;;;;;6.00;2.92;;;11.50;99.90;;;;;;5034831;28;20170;-46
2023/03/18 00:55:31;;;;;;;6.20;3.08;;;11.50;99.90;;;;;;5034381;28;20687;-44
2023/03/18 00:57:57;;;;;;;6.88;2.67;;;11.50;99.90;;;;;;5034921;28;20231;-45
2023/03/18 01:00:24;;;;;;;6.40;3.30;;;11.50;99.90;;;;;;5034719;28;20241;-44
2023/03/18 01:02:50;;;;;;;6.65;2.90;;;11.50;99.90;;;;;;5034464;28;20176;-45
2023/03/18 01:05:17;;;;;;;4.38;3.03;;;11.50;99.90;;;;;;5033995;28;20164;-44
2023/03/18 01:07:43;;;;;;;10.02;3.55;;;11.40;99.90;;;;;;5033612;28;20691;-49
2023/03/18 01:10:11;;;;;;;6.57;3.40;;;11.30;99.90;;;;;;5034356;28;20180;-44
2023/03/18 01:12:37;;;;;;;8.95;3.95;;;11.30;99.90;;;;;;5034337;28;20182;-45
2023/03/18 01:15:04;;;;;;;5.60;3.40;;;11.30;99.90;;;;;;5034033;28;20156;-44
2023/03/18 01:17:30;;;;;;;8.85;3.22;;;11.30;99.90;;;;;;5034272;28;20270;-43
2023/03/18 01:19:56;;;;;;;5.07;3.35;;;11.20;99.90;;;;;;5034568;28;20258;-44
2023/03/18 01:22:22;;;;;;;12.27;3.13;;;11.20;99.90;;;;;;5033765;28;20210;-44
2023/03/18 01:24:47;;;;;;;9.90;3.45;;;11.20;99.90;;;;;;5033820;28;20758;-43
2023/03/18 01:27:13;;;;;;;6.72;2.85;;;11.20;99.90;;;;;;5034065;28;20254;-43
2023/03/18 01:29:39;;;;;;;4.78;2.83;;;11.20;99.90;;;;;;5034038;28;20167;-44
2023/03/18 01:32:05;;;;;;;5.60;3.13;;;11.20;99.90;;;;;;5034069;28;20175;-44
2023/03/18 01:34:31;;;;;;;4.90;2.97;;;11.30;99.90;;;;;;5033404;28;20353;-44
2023/03/18 01:36:57;;;;;;;7.43;3.13;;;11.30;99.90;;;;;;5034097;28;20187;-45
2023/03/18 01:39:23;;;;;;;5.60;3.25;;;11.30;99.90;;;;;;5033719;28;20667;-44
2023/03/18 01:41:49;;;;;;;5.05;2.78;;;11.20;99.90;;;;;;5033798;28;20544;-44
2023/03/18 01:44:19;;;;;;;6.03;3.20;;;11.30;99.90;;;;;;5033560;28;20182;-45
2023/03/18 01:46:46;;;;;;;8.73;2.85;;;11.30;99.90;;;;;;5033366;28;20728;-46
2023/03/18 01:49:27;;;;;;;4.35;2.83;;;11.30;99.90;;;;;;5033669;28;20167;-46
2023/03/18 01:51:56;;;;;;;5.00;3.30;;;11.30;99.90;;;;;;5033814;28;20171;-48
2023/03/18 01:54:24;;;;;;;6.35;2.83;;;11.40;99.90;;;;;;5033432;28;20166;-44
2023/03/18 01:56:51;;;;;;;8.18;3.10;;;11.40;99.90;;;;;;5033291;28;20179;-44
2023/03/18 01:59:18;;;;;;;4.50;2.92;;;11.40;99.90;;;;;;5033448;28;20167;-44
2023/03/18 02:01:52;;;;;;;5.40;2.53;;;11.40;99.90;;;;;;5033094;28;20199;-44
2023/03/18 02:04:22;;;;;;;8.10;2.95;;;11.40;99.90;;;;;;5033202;28;20709;-44
2023/03/18 02:06:47;;;;;;;6.97;3.00;;;11.40;99.90;;;;;;5033219;28;20184;-43
2023/03/18 02:09:13;;;;;;;5.75;3.60;;;11.40;99.90;;;;;;5032465;28;20207;-44
2023/03/18 02:11:42;;;;;;;5.03;3.00;;;11.40;99.90;;;;;;5032932;28;20721;-44
2023/03/18 02:14:12;;;;;;;8.70;3.47;;;11.40;99.90;;;;;;5033224;28;20168;-44
2023/03/18 02:16:44;;;;;;;8.15;3.53;;;11.40;99.90;;;;;;5032959;28;20172;-44
2023/03/18 02:19:53;;;;;;;7.00;3.40;;;11.40;99.90;;;;;;5032209;28;20266;-44
2023/03/18 02:22:42;;;;;;;5.65;3.08;;;11.40;99.90;;;;;;5031726;28;20571;-44
2023/03/18 02:25:08;;;;;;;4.68;2.97;;;11.40;99.90;;;;;;5033098;28;20179;-43
2023/03/18 02:27:40;;;;;;;7.00;3.40;;;11.30;99.90;;;;;;5032704;28;20167;-44
2023/03/18 02:30:11;;;;;;;5.93;3.25;;;11.30;99.90;;;;;;5032649;28;20167;-44
2023/03/18 02:32:40;;;;;;;6.65;3.05;;;11.20;99.90;;;;;;5033159;28;20171;-43
2023/03/18 02:35:09;;;;;;;6.80;3.47;;;11.20;99.90;;;;;;5032307;28;20178;-45
2023/03/18 02:37:35;;;;;;;5.88;3.20;;;11.20;99.90;;;;;;5032675;28;20163;-43
2023/03/18 02:40:14;;;;;;;10.63;3.60;;;11.20;99.90;;;;;;5032537;28;20686;-44
2023/03/18 02:42:40;;;;;;;7.60;3.25;;;11.10;99.90;;;;;;5032348;28;20514;-43
2023/03/18 02:45:25;;;;;;;8.45;3.13;;;11.00;99.90;;;;;;5032689;28;20213;-44
2023/03/18 02:47:51;;;;;;;5.63;2.92;;;11.00;99.90;;;;;;5032416;28;20163;-43
2023/03/18 02:50:17;;;;;;;8.20;2.85;;;11.00;99.90;;;;;;5032288;28;20262;-44
2023/03/18 02:52:42;;;;;;;9.13;3.85;;;10.90;99.90;;;;;;5032154;28;20177;-45
2023/03/18 02:55:08;;;;;;;4.82;3.20;;;10.90;99.90;;;;;;5032422;28;20167;-44
2023/03/18 02:57:34;;;;;;;9.10;3.72;;;10.80;99.90;;;;;;5032095;28;20163;-44
2023/03/18 02:59:59;;;;;;;8.75;3.50;;;10.70;99.90;;;;;;5032348;28;20167;-47
2023/03/18 03:02:25;;;;;;;7.72;3.90;;;10.70;99.90;;;;;;5032539;28;20203;-44
2023/03/18 03:04:51;;;;;;;8.43;3.67;;;10.70;99.90;;;;;;5031712;28;20639;-46
2023/03/18 03:07:17;;;;;;;6.13;3.25;;;10.70;99.90;;;;;;5031933;28;20288;-44
2023/03/18 03:09:42;;;;;;;6.95;3.47;;;10.70;99.90;;;;;;5031392;28;20164;-43
2023/03/18 03:12:08;;;;;;;7.10;3.63;;;10.70;99.90;;;;;;5031911;28;20175;-44
2023/03/18 03:14:34;;;;;;;8.85;3.88;;;10.70;99.90;;;;;;5030785;28;20176;-43
2023/03/18 03:16:59;;;;;;;10.30;3.80;;;10.70;99.90;;;;;;5030673;28;20246;-44
2023/03/18 03:19:25;;;;;;;5.28;3.42;;;10.60;99.90;;;;;;5032707;28;20247;-45
2023/03/18 03:21:51;;;;;;;6.90;4.18;;;10.60;99.90;;;;;;5032265;28;20549;-46
2023/03/18 03:24:16;;;;;;;7.57;4.10;;;10.60;99.90;;;;;;5032241;28;20172;-44
2023/03/18 03:26:42;;;;;;;7.10;3.70;;;10.50;99.90;;;;;;5032209;28;20171;-44
2023/03/18 03:29:08;;;;;;;6.07;3.63;;;10.50;99.90;;;;;;5032463;28;20285;-44
2023/03/18 03:31:34;;;;;;;7.32;3.85;;;10.50;99.90;;;;;;5031054;28;20174;-44
2023/03/18 03:34:00;;;;;;;10.60;4.57;;;10.50;99.90;;;;;;5032112;28;20214;-44
2023/03/18 03:36:25;;;;;;;8.38;4.65;;;10.50;99.90;;;;;;5032545;28;20508;-44
2023/03/18 03:38:51;;;;;;;4.43;3.72;;;10.50;99.90;;;;;;5032149;28;20570;-44
2023/03/18 03:41:17;;;;;;;9.70;4.43;;;10.50;99.90;;;;;;5031954;28;20256;-44
2023/03/18 03:43:43;;;;;;;6.97;4.40;;;10.40;99.90;;;;;;5032099;28;20615;-43
2023/03/18 03:46:10;;;;;;;6.60;4.82;;;10.40;99.90;;;;;;5031620;28;20206;-44
2023/03/18 03:48:36;;;;;;;7.53;4.50;;;10.50;99.90;;;;;;5031843;28;20164;-43
2023/03/18 03:51:02;;;;;;;6.82;3.85;;;10.40;99.90;;;;;;5032163;28;20233;-44
2023/03/18 03:53:28;;;;;;;7.35;3.90;;;10.50;99.90;;;;;;5032259;28;20171;-43
2023/03/18 03:55:55;;;;;;;10.95;4.40;;;10.50;99.90;;;;;;5032367;28;20163;-44
2023/03/18 03:58:21;;;;;;;9.50;4.22;;;10.40;99.90;;;;;;5031768;28;20685;-46
2023/03/18 04:00:46;;;;;;;9.52;4.15;;;10.40;99.90;;;;;;5031936;28;20557;-53
2023/03/18 04:03:12;;;;;;;9.32;4.57;;;10.50;99.90;;;;;;5031753;28;20171;-53
2023/03/18 04:05:38;;;;;;;7.70;4.10;;;10.60;99.90;;;;;;5031719;28;20221;-53
2023/03/18 04:08:05;;;;;;;5.70;3.90;;;10.50;99.90;;;;;;5031609;28;20305;-52
2023/03/18 04:10:33;;;;;;;7.60;4.30;;;10.40;99.90;;;;;;5031933;28;20195;-53
2023/03/18 04:12:59;;;;;;;7.85;4.75;;;10.40;99.90;;;;;;5031948;28;20569;-51
2023/03/18 04:15:25;;;;;;;6.32;4.50;;;10.40;99.90;;;;;;5031994;28;20183;-53
2023/03/18 04:17:50;;;;;;;17.67;6.97;;;10.40;99.90;;;;;;5031578;28;20204;-53
2023/03/18 04:20:17;;;;;;;9.52;5.55;;;10.40;99.90;;;;;;5033530;28;20167;-53
2023/03/18 04:22:43;;;;;;;9.43;6.05;;;10.40;99.90;;;;;;5035885;28;20224;-54
2023/03/18 04:25:10;;;;;;;10.90;5.97;;;10.40;99.90;;;;;;5035855;28;20167;-53
2023/03/18 04:27:37;;;;;;;15.63;6.63;;;10.50;99.90;;;;;;5035604;28;20655;-54
2023/03/18 04:30:05;;;;;;;11.65;5.57;;;10.50;99.90;;;;;;5035464;28;20179;-53
2023/03/18 04:32:30;;;;;;;10.60;5.55;;;10.50;99.90;;;;;;5035627;28;20182;-43
2023/03/18 04:34:56;;;;;;;11.73;5.20;;;10.60;99.90;;;;;;5035714;28;20522;-54
2023/03/18 04:37:22;;;;;;;11.57;6.13;;;10.60;99.90;;;;;;5034620;28;20225;-49
2023/03/18 04:39:48;;;;;;;7.80;5.15;;;10.60;99.90;;;;;;5034930;28;20623;-54
2023/03/18 04:42:15;;;;;;;10.88;5.30;;;10.60;99.90;;;;;;5034589;28;20286;-53
2023/03/18 04:44:41;;;;;;;7.65;4.93;;;10.60;99.90;;;;;;5034954;28;20175;-51
2023/03/18 04:47:07;;;;;;;9.50;5.38;;;10.60;99.90;;;;;;5034666;28;20167;-52
2023/03/18 04:49:33;;;;;;;12.05;6.70;;;10.70;99.90;;;;;;5034664;28;20174;-54
2023/03/18 04:51:59;;;;;;;9.88;6.03;;;10.70;99.90;;;;;;5034620;28;20164;-53
2023/03/18 04:54:24;;;;;;;10.05;6.88;;;10.60;99.90;;;;;;5034983;28;20217;-53
2023/03/18 04:56:50;;;;;;;12.30;5.63;;;10.60;99.90;;;;;;5034396;28;20167;-53
2023/03/18 04:59:17;;;;;;;6.55;4.10;;;10.60;99.90;;;;;;5034330;28;20164;-53
2023/03/18 05:01:42;;;;;;;10.82;4.38;;;10.60;99.90;;;;;;5034770;28;20238;-54
2023/03/18 05:04:08;;;;;;;7.95;4.80;;;10.50;99.90;;;;;;5034411;28;20199;-54
2023/03/18 05:06:33;;;;;;;8.38;4.90;;;10.50;99.90;;;;;;5034549;28;20179;-54
2023/03/18 05:09:00;;;;;;;9.98;4.10;;;10.60;99.90;;;;;;5034111;28;20576;-51
2023/03/18 05:11:27;;;;;;;7.10;4.72;;;10.60;99.90;;;;;;5033689;28;20179;-52
2023/03/18 05:13:52;;;;;;;11.43;5.00;;;10.60;99.90;;;;;;5034087;28;20160;-54
2023/03/18 05:16:18;;;;;;;11.18;4.70;;;10.50;99.90;;;;;;5034220;28;20172;-53
2023/03/18 05:18:45;;;;;;;6.35;3.80;;;10.50;99.90;;;;;;5033979;28;20631;-53
2023/03/18 05:21:11;;;;;;;10.85;4.72;;;10.50;99.90;;;;;;5033922;28;20211;-54
2023/03/18 05:23:37;;;;;;;14.20;5.10;;;10.50;99.90;;;;;;5033993;28;20171;-54
2023/03/18 05:26:04;;;;;;;9.88;5.10;;;10.50;99.90;;;;;;5034138;28;20217;-53
2023/03/18 05:28:30;;;;;;;9.52;4.63;;;10.40;99.90;;;;;;5032674;28;20171;-52
2023/03/18 05:30:56;;;;;;;10.32;4.63;;;10.40;99.90;;;;;;5034050;28;20589;-52
2023/03/18 05:33:21;;;;;;;8.88;5.20;;;10.40;99.90;;;;;;5032087;28;20167;-53
2023/03/18 05:35:47;;;;;;;9.98;5.00;;;10.40;99.90;;;;;;5033649;28;20167;-53
2023/03/18 05:38:13;;;;;;;11.18;5.25;;;10.40;99.90;;;;;;5033578;28;20193;-52
2023/03/18 05:40:39;;;;;;;14.55;5.55;;;10.30;99.90;;;;;;5033818;28;20249;-54
2023/03/18 05:43:05;;;;;;;8.05;4.90;;;10.50;99.90;;;;;;5032228;28;20176;-50
2023/03/18 05:45:30;;;;;;;10.32;5.88;;;10.40;99.90;;;;;;5033795;28;20159;-53
2023/03/18 05:47:56;;;;;;;9.63;5.82;;;10.40;99.90;;;;;;5034101;28;20175;-53
2023/03/18 05:50:34;;;;;;;16.83;6.85;;;10.30;99.90;;;;;;5033542;28;20171;-53
2023/03/18 05:53:01;;;;;;;13.50;6.10;;;10.40;99.90;;;;;;5033672;28;20182;-50
2023/03/18 05:55:28;;;;;;;16.63;8.52;;;10.30;99.90;;;;;;5033625;28;20191;-53
2023/03/18 05:57:54;;;;;;;22.20;12.00;;;10.30;99.90;;;;;;5032191;28;20700;-52
2023/03/18 06:00:20;;;;;;;29.48;15.40;;;10.30;99.90;;;;;;5033044;28;20206;-50
2023/03/18 06:02:46;;;;;;;17.60;7.90;;;10.30;99.90;;;;;;5033172;28;20183;-53
2023/03/18 06:05:13;;;;;;;10.48;5.68;;;10.30;99.90;;;;;;5033261;28;20175;-51
2023/03/18 06:07:39;;;;;;;71.60;32.35;;;10.20;99.90;;;;;;5032993;28;20248;-54
2023/03/18 06:10:06;;;;;;;17.63;9.57;;;10.20;99.90;;;;;;5033157;28;20170;-53
2023/03/18 06:12:32;;;;;;;16.88;8.65;;;10.20;99.90;;;;;;5031785;28;20167;-53
2023/03/18 06:14:58;;;;;;;15.07;6.43;;;10.20;99.90;;;;;;5032229;28;20175;-48
2023/03/18 06:17:24;;;;;;;27.85;14.90;;;10.20;99.90;;;;;;5033298;28;20558;-49
2023/03/18 06:19:49;;;;;;;7.80;5.03;;;10.30;99.90;;;;;;5033383;28;20230;-50
2023/03/18 06:22:18;;;;;;;32.70;17.48;;;10.30;99.90;;;;;;5031404;28;20199;-51
2023/03/18 06:24:43;;;;;;;52.42;31.92;;;10.20;99.90;;;;;;5032694;28;20635;-50
2023/03/18 06:27:10;;;;;;;22.27;13.13;;;10.30;99.90;;;;;;5033045;28;20175;-53
2023/03/18 06:29:35;;;;;;;9.43;5.80;;;10.40;99.90;;;;;;5033018;28;20262;-52
2023/03/18 06:32:01;;;;;;;12.35;7.85;;;10.40;99.90;;;;;;5032708;28;20202;-53
2023/03/18 06:34:27;;;;;;;9.00;6.18;;;10.40;99.90;;;;;;5032917;28;20178;-53
2023/03/18 06:36:52;;;;;;;13.18;8.32;;;10.40;99.90;;;;;;5032848;28;20175;-53
2023/03/18 06:39:19;;;;;;;10.07;5.40;;;10.40;99.90;;;;;;5032683;28;20167;-53
2023/03/18 06:41:45;;;;;;;8.80;5.90;;;10.40;99.90;;;;;;5032577;28;20214;-51
2023/03/18 06:44:12;;;;;;;10.73;6.00;;;10.50;99.90;;;;;;5031549;28;20171;-53
2023/03/18 06:46:38;;;;;;;13.52;6.75;;;10.60;99.90;;;;;;5032641;28;20224;-53
2023/03/18 06:49:04;;;;;;;28.05;18.77;;;10.60;99.90;;;;;;5032473;28;20159;-54
2023/03/18 06:51:29;;;;;;;13.32;8.23;;;10.70;99.90;;;;;;5032166;28;20650;-44
2023/03/18 06:53:55;;;;;;;12.73;5.28;;;10.80;99.90;;;;;;5032618;28;20167;-43
2023/03/18 06:56:22;;;;;;;11.27;5.72;;;10.80;99.90;;;;;;5031981;28;20263;-43
2023/03/18 06:58:48;;;;;;;8.25;5.10;;;10.80;99.90;;;;;;5032201;28;20218;-43
2023/03/18 07:01:13;;;;;;;8.30;4.93;;;10.90;99.90;;;;;;5032185;28;20211;-44
2023/03/18 07:03:39;;;;;;;7.00;5.40;;;10.90;99.90;;;;;;5031993;28;20171;-44
2023/03/18 07:06:06;;;;;;;9.68;5.95;;;11.00;99.90;;;;;;5032048;28;20180;-43
2023/03/18 07:08:32;;;;;;;19.63;12.77;;;11.00;99.90;;;;;;5031936;28;20710;-44
2023/03/18 07:10:57;;;;;;;7.00;5.13;;;11.10;99.90;;;;;;5032059;28;20202;-44
2023/03/18 07:13:23;;;;;;;10.88;5.07;;;11.00;99.90;;;;;;5032296;28;20233;-44
2023/03/18 07:15:49;;;;;;;11.10;5.13;;;11.10;99.90;;;;;;5031900;28;20176;-44
2023/03/18 07:18:15;;;;;;;8.40;5.43;;;11.20;99.90;;;;;;5032024;28;20650;-44
2023/03/18 07:20:41;;;;;;;9.30;5.40;;;11.40;99.90;;;;;;5031743;28;20195;-44
2023/03/18 07:23:06;;;;;;;8.95;5.03;;;11.60;99.90;;;;;;5032014;28;20214;-47
2023/03/18 07:25:32;;;;;;;7.80;5.03;;;11.70;99.90;;;;;;5031724;28;20163;-44
2023/03/18 07:28:02;;;;;;;8.20;4.55;;;11.90;99.90;;;;;;5031786;28;20531;-44
2023/03/18 07:30:27;;;;;;;6.65;4.10;;;12.00;99.90;;;;;;5031927;28;20508;-44
2023/03/18 07:32:54;;;;;;;5.15;3.42;;;11.90;99.90;;;;;;5032283;28;20182;-44
2023/03/18 07:35:20;;;;;;;7.25;3.50;;;12.00;99.90;;;;;;5031594;28;20697;-44
2023/03/18 07:37:46;;;;;;;9.10;5.30;;;12.20;99.90;;;;;;5031330;28;20179;-44
2023/03/18 07:40:12;;;;;;;4.50;3.85;;;12.20;99.90;;;;;;5031322;28;20172;-44
2023/03/18 07:42:38;;;;;;;6.85;3.25;;;12.30;99.90;;;;;;5030859;28;20573;-44
2023/03/18 07:45:07;;;;;;;6.13;3.40;;;12.30;99.90;;;;;;5030902;28;20179;-43
2023/03/18 07:47:33;;;;;;;5.63;3.55;;;12.40;99.90;;;;;;5030789;28;20195;-45
2023/03/18 07:49:59;;;;;;;3.75;3.08;;;12.40;99.90;;;;;;5031464;28;20159;-43
2023/03/18 07:52:24;;;;;;;4.97;2.92;;;12.50;99.90;;;;;;5031657;28;20164;-44
2023/03/18 07:54:50;;;;;;;7.43;2.90;;;12.50;99.90;;;;;;5031119;28;20171;-49
2023/03/18 07:57:16;;;;;;;7.78;2.90;;;12.50;99.90;;;;;;5030758;28;20176;-43
2023/03/18 07:59:41;;;;;;;5.65;3.30;;;12.40;99.90;;;;;;5031321;28;20179;-44
2023/03/18 08:02:09;;;;;;;6.25;2.95;;;12.40;99.90;;;;;;5030838;28;20203;-44
2023/03/18 08:04:35;;;;;;;4.45;3.20;;;12.30;99.90;;;;;;5031089;28;20163;-44
2023/03/18 08:07:01;;;;;;;5.32;3.33;;;12.30;99.90;;;;;;5029499;28;20756;-45
2023/03/18 08:09:27;;;;;;;6.75;3.50;;;12.30;99.90;;;;;;5031331;28;20312;-44
2023/03/18 08:11:53;;;;;;;4.68;3.58;;;12.30;99.90;;;;;;5031082;28;20646;-44
2023/03/18 08:14:19;;;;;;;3.80;3.30;;;12.50;99.90;;;;;;5031111;28;20648;-43
2023/03/18 08:16:44;;;;;;;7.55;3.38;;;12.70;99.90;;;;;;5030407;28;20191;-43
2023/03/18 08:19:10;;;;;;;4.72;3.35;;;12.90;99.90;;;;;;5030572;28;20170;-49
2023/03/18 08:21:36;;;;;;;5.10;3.78;;;13.10;99.90;;;;;;5030234;28;20195;-46
2023/03/18 08:24:02;;;;;;;6.75;3.33;;;13.30;99.90;;;;;;5031028;28;20233;-44
2023/03/18 08:26:28;;;;;;;7.75;3.75;;;13.60;99.90;;;;;;5029385;28;20250;-45
2023/03/18 08:28:54;;;;;;;4.50;2.97;;;13.60;99.90;;;;;;5031268;28;20250;-46
2023/03/18 08:31:19;;;;;;;5.07;3.13;;;13.60;99.90;;;;;;5030368;28;20168;-45
2023/03/18 08:33:46;;;;;;;5.82;3.42;;;13.80;99.90;;;;;;5030669;28;20206;-52
2023/03/18 08:36:12;;;;;;;4.55;2.63;;;13.80;99.90;;;;;;5030312;28;20263;-53
2023/03/18 08:38:38;;;;;;;8.90;3.28;;;13.80;99.90;;;;;;5030827;28;20267;-44
2023/03/18 08:41:03;;;;;;;7.03;3.92;;;13.70;99.90;;;;;;5030651;28;20217;-44
2023/03/18 08:43:29;;;;;;;9.15;4.50;;;13.70;99.90;;;;;;5031368;28;20659;-44
2023/03/18 08:45:55;;;;;;;5.60;3.75;;;13.70;99.90;;;;;;5030984;28;20602;-44
2023/03/18 08:48:22;;;;;;;4.88;3.22;;;13.70;99.90;;;;;;5029399;28;20171;-43
2023/03/18 08:50:48;;;;;;;9.70;3.72;;;13.70;99.90;;;;;;5030533;28;20168;-44
2023/03/18 08:53:15;;;;;;;7.88;3.50;;;13.70;99.90;;;;;;5030716;28;20178;-43
2023/03/18 08:55:41;;;;;;;4.75;3.42;;;13.70;99.90;;;;;;5029306;28;20175;-44
2023/03/18 08:58:07;;;;;;;7.93;4.68;;;13.60;99.90;;;;;;5030535;28;20174;-43
2023/03/18 09:00:35;;;;;;;6.07;3.08;;;13.60;99.90;;;;;;5030488;28;20167;-46
2023/03/18 09:03:01;;;;;;;4.97;3.17;;;13.60;99.90;;;;;;5028891;28;20178;-43
2023/03/18 09:05:27;;;;;;;5.85;3.75;;;13.60;99.90;;;;;;5030569;28;20183;-44
2023/03/18 09:07:53;;;;;;;4.25;3.20;;;13.80;99.90;;;;;;5033425;28;20755;-44
2023/03/18 09:10:19;;;;;;;4.30;3.00;;;13.90;99.90;;;;;;5034152;28;20160;-44
2023/03/18 09:12:45;;;;;;;6.65;2.67;;;13.90;99.90;;;;;;5034386;28;20607;-45
2023/03/18 09:15:13;;;;;;;8.15;3.30;;;14.00;99.90;;;;;;5033941;28;20172;-45
2023/03/18 09:17:39;;;;;;;4.95;2.70;;;14.10;99.90;;;;;;5033827;28;20654;-43
2023/03/18 09:20:10;;;;;;;13.30;4.47;;;14.30;99.90;;;;;;5034020;28;20168;-44
2023/03/18 09:22:37;;;;;;;5.80;2.97;;;14.30;99.90;;;;;;5033949;28;20246;-48
2023/03/18 09:25:04;;;;;;;5.97;3.22;;;13.30;99.90;;;;;;5033441;28;20160;-50
2023/03/18 09:27:29;;;;;;;6.82;3.60;;;14.40;99.90;;;;;;5034235;28;20175;-45
2023/03/18 09:29:55;;;;;;;6.40;3.42;;;14.40;99.90;;;;;;5034312;28;20254;-44
2023/03/18 09:32:21;;;;;;;4.80;3.42;;;14.60;99.90;;;;;;5033680;28;20583;-45
2023/03/18 09:34:47;;;;;;;6.05;3.90;;;14.80;99.90;;;;;;5033408;28;20817;-45
2023/03/18 09:37:13;;;;;;;7.78;3.42;;;15.00;99.90;;;;;;5033834;28;20175;-46
2023/03/18 09:39:40;;;;;;;7.97;3.20;;;14.90;99.90;;;;;;5034010;28;20183;-44
2023/03/18 09:42:23;;;;;;;8.18;3.92;;;14.90;99.90;;;;;;5032704;28;20256;-45
2023/03/18 09:44:57;;;;;;;6.03;3.55;;;15.00;99.90;;;;;;5033468;28;20480;-48
2023/03/18 09:48:02;;;;;;;6.53;3.08;;;15.30;99.90;;;;;;5033722;28;20172;-46
2023/03/18 09:51:09;;;;;;;5.15;2.92;;;15.20;99.90;;;;;;5033178;28;20171;-46
2023/03/18 09:53:40;;;;;;;5.45;2.47;;;15.20;99.90;;;;;;5032586;28;20332;-46
2023/03/18 09:56:14;;;;;;;6.03;3.10;;;15.40;99.90;;;;;;5033544;28;20258;-44
2023/03/18 09:58:56;;;;;;;6.22;3.42;;;15.50;99.90;;;;;;5033568;28;20206;-43
2023/03/18 10:01:25;;;;;;;7.05;3.45;;;15.20;99.90;;;;;;5033425;28;20221;-43
2023/03/18 10:04:01;;;;;;;4.63;2.70;;;15.40;99.90;;;;;;5032883;28;20176;-44
2023/03/18 10:06:27;;;;;;;4.20;1.90;;;18.70;99.90;;;;;;5031894;28;20270;-43
2023/03/18 10:09:25;;;;;;;5.03;2.38;;;15.40;99.90;;;;;;5032552;28;20714;-43
2023/03/18 10:11:58;;;;;;;4.68;1.77;;;15.50;99.90;;;;;;5032813;28;20171;-43
2023/03/18 10:14:36;;;;;;;2.95;2.20;;;15.60;99.90;;;;;;5032301;28;20225;-43
2023/03/18 10:17:30;;;;;;;4.18;1.95;;;15.40;99.90;;;;;;5032885;28;20175;-44
2023/03/18 10:19:58;;;;;;;3.00;2.17;;;15.60;99.90;;;;;;5032801;28;20201;-44
2023/03/18 10:22:51;;;;;;;4.72;2.88;;;15.50;99.90;;;;;;5032712;28;20298;-44
2023/03/18 10:25:25;;;;;;;4.20;2.60;;;15.60;99.90;;;;;;5032880;28;20163;-44
2023/03/18 10:28:14;;;;;;;3.80;1.92;;;15.50;99.90;;;;;;5033205;28;20642;-44
2023/03/18 10:31:00;;;;;;;3.53;2.30;;;15.80;99.90;;;;;;5033132;28;20167;-44
2023/03/18 10:34:03;;;;;;;3.60;2.00;;;16.10;99.90;;;;;;5032598;28;20176;-44
2023/03/18 10:36:42;;;;;;;4.80;2.42;;;16.00;99.90;;;;;;5032771;28;20595;-43
2023/03/18 10:39:15;;;;;;;4.28;2.53;;;16.20;99.90;;;;;;5031916;28;20172;-43
2023/03/18 10:41:42;;;;;;;7.47;2.75;;;16.00;99.90;;;;;;5032846;28;20210;-43
2023/03/18 10:44:25;;;;;;;4.40;2.20;;;16.00;99.90;;;;;;5031984;28;20164;-44
2023/03/18 10:46:56;;;;;;;3.95;2.50;;;16.20;99.90;;;;;;5032639;28;20647;-44
2023/03/18 10:49:29;;;;;;;5.82;2.20;;;16.50;99.90;;;;;;5032354;28;20163;-44
2023/03/18 10:52:17;;;;;;;4.00;2.78;;;16.70;99.90;;;;;;5032690;28;20569;-43
2023/03/18 10:54:49;;;;;;;3.90;1.92;;;16.80;99.90;;;;;;5030763;28;20172;-43
2023/03/18 10:57:15;;;;;;;4.53;2.75;;;16.70;99.90;;;;;;5032213;28;20206;-43
2023/03/18 10:59:44;;;;;;;2.83;1.50;;;16.80;99.90;;;;;;5032023;28;20595;-44
2023/03/18 11:02:35;;;;;;;4.65;1.70;;;16.50;99.90;;;;;;5032193;28;20211;-43
2023/03/18 11:05:17;;;;;;;7.65;3.22;;;17.00;99.90;;;;;;5031387;28;20187;-44
2023/03/18 11:07:56;;;;;;;4.00;1.70;;;17.10;99.90;;;;;;5031652;28;20303;-44
2023/03/18 11:10:26;;;;;;;3.42;2.10;;;17.30;99.90;;;;;;5032073;28;20734;-44
2023/03/18 11:12:58;;;;;;;2.92;1.98;;;17.50;99.90;;;;;;5032002;28;20262;-43
2023/03/18 11:15:25;;;;;;;5.32;2.20;;;17.60;99.90;;;;;;5032241;28;20159;-45
2023/03/18 11:17:51;;;;;;;5.25;2.78;;;17.10;99.90;;;;;;5031751;28;20163;-46
2023/03/18 11:20:25;;;;;;;5.18;2.47;;;16.90;99.90;;;;;;5031856;28;20166;-44
2023/03/18 11:22:54;;;;;;;5.05;2.38;;;17.00;99.90;;;;;;5031660;28;20175;-43
2023/03/18 11:25:25;;;;;;;5.70;2.15;;;17.10;99.90;;;;;;5031858;28;20171;-44
2023/03/18 11:28:03;;;;;;;6.07;2.33;;;16.90;99.90;;;;;;5031630;28;20159;-44
2023/03/18 11:30:33;;;;;;;4.70;2.20;;;16.70;99.90;;;;;;5030849;28;20646;-44
2023/03/18 11:33:04;;;;;;;4.93;2.40;;;16.60;99.90;;;;;;5031453;28;20178;-44
2023/03/18 11:35:42;;;;;;;2.28;1.80;;;16.50;99.90;;;;;;5031369;28;20293;-44
2023/03/18 11:38:14;;;;;;;6.30;3.20;;;16.50;99.90;;;;;;5031504;28;20171;-44
2023/03/18 11:40:40;;;;;;;3.58;2.03;;;16.60;99.90;;;;;;5031673;28;20517;-46
2023/03/18 11:43:20;;;;;;;7.18;2.10;;;16.80;99.90;;;;;;5031245;28;20180;-48
2023/03/18 11:45:53;;;;;;;3.35;2.05;;;17.10;99.90;;;;;;5031269;28;20651;-55
2023/03/18 11:48:29;;;;;;;2.10;1.80;;;17.30;99.90;;;;;;5031114;28;20167;-53
2023/03/18 11:51:12;;;;;;;3.67;2.15;;;17.40;99.90;;;;;;5031851;28;20245;-49
2023/03/18 11:53:51;;;;;;;2.70;1.80;;;17.40;99.90;;;;;;5030923;28;20167;-51
2023/03/18 11:56:28;;;;;;;2.65;1.88;;;17.30;99.90;;;;;;5031388;28;20170;-53
2023/03/18 11:59:16;;;;;;;5.60;2.15;;;17.40;99.90;;;;;;5030183;28;20534;-52
2023/03/18 12:01:58;;;;;;;4.60;2.47;;;17.30;99.90;;;;;;5031212;28;20608;-48
2023/03/18 12:04:45;;;;;;;6.35;2.33;;;17.10;99.90;;;;;;5031418;28;20230;-51
2023/03/18 12:07:37;;;;;;;5.28;3.00;;;17.40;99.90;;;;;;5031073;28;20843;-52
2023/03/18 12:10:12;;;;;;;4.38;2.25;;;17.40;99.90;;;;;;5022040;28;20183;-43
2023/03/18 12:13:06;;;;;;;9.65;2.70;;;17.50;99.90;;;;;;5021400;28;20517;-46
2023/03/18 12:15:35;;;;;;;8.68;4.95;;;17.50;99.90;;;;;;5016505;28;20603;-54
2023/03/18 12:18:15;;;;;;;10.32;5.38;;;17.60;99.90;;;;;;5011298;28;20563;-49
2023/03/18 12:20:49;;;;;;;9.60;5.10;;;17.90;99.90;;;;;;5018832;28;20181;-55
2023/03/18 12:23:30;;;;;;;5.78;2.65;;;17.90;99.90;;;;;;5031271;28;20183;-51
2023/03/18 12:26:04;;;;;;;3.42;2.13;;;17.80;99.90;;;;;;5031640;28;20171;-54
2023/03/18 12:28:51;;;;;;;3.58;1.90;;;17.80;99.90;;;;;;5030146;28;20190;-55
2023/03/18 12:31:26;;;;;;;4.10;2.47;;;17.70;99.90;;;;;;5030629;28;20220;-52
2023/03/18 12:34:11;;;;;;;4.60;2.58;;;17.70;99.90;;;;;;5031084;28;20560;-55
2023/03/18 12:37:05;;;;;;;6.45;2.63;;;17.70;99.90;;;;;;5030640;28;20694;-55
2023/03/18 12:40:11;;;;;;;9.55;4.80;;;17.90;99.90;;;;;;5029285;28;20214;-56
2023/03/18 12:42:49;;;;;;;10.07;5.95;;;18.10;99.90;;;;;;5021645;28;20214;-55
2023/03/18 12:45:21;;;;;;;2.83;1.95;;;18.10;99.90;;;;;;5034491;28;20631;-53
2023/03/18 12:47:59;;;;;;;5.72;3.67;;;18.10;99.90;;;;;;5034456;28;20171;-55
2023/03/18 12:50:36;;;;;;;2.63;1.65;;;18.00;99.90;;;;;;5034841;28;20186;-55
2023/03/18 12:53:44;;;;;;;3.53;2.05;;;17.90;99.90;;;;;;5034698;28;20175;-55
2023/03/18 12:56:18;;;;;;;4.55;2.40;;;17.90;99.90;;;;;;5033729;28;20179;-52
2023/03/18 12:58:50;;;;;;;10.23;4.50;;;17.90;99.90;;;;;;5033952;28;20167;-55